Mr Connor — WDF2688 — position and weather

sailwx.info

Track history (hours):
 
Tides and Currents Weather Stations Pressure Air Temp Water Temp Dewpoint Dewpoint Depression Visibility Wind Speed Wind Dir Waves Ship Positions

Mr Connor

Owner: Marquette Transportation Company Offshore LLC, Jefferson, LA. More information available from US FCC via Universal Licensing System and Coast Guard Vessel Documentation Center.

Last reported at 2017-Sep-24 08:29 UTC. Time now 2017-Sep-24 08:38 UTC.
Position N 30°15' W 093°15'.

Length 20 m; draft 3 m.

Type: Tug. MMSI: 367430750.

Date/timePositionNaut miles runAvg speedWind from/ knotsBaromVisibWave heightAir tempDewpointWater temp
2017-Sep-24 08:29N 30°15' W 093°15'0 0.0
2017-Sep-24 07:44N 30°15' W 093°15'0 0.0
2017-Sep-24 07:23N 30°15' W 093°15'0 0.0
2017-Sep-24 05:08N 30°15' W 093°15'0 0.1
2017-Sep-24 04:59N 30°15' W 093°15'0 0.0
2017-Sep-24 04:26N 30°15' W 093°15'0 0.0
2017-Sep-24 03:59N 30°15' W 093°15'0 0.0
2017-Sep-24 03:29N 30°15' W 093°15'0 0.0
2017-Sep-24 02:56N 30°15' W 093°15'0 0.0
2017-Sep-24 02:20N 30°15' W 093°15'0 0.0
2017-Sep-24 01:20N 30°15' W 093°15'0 0.0
2017-Sep-24 00:44N 30°15' W 093°15'0 0.0
2017-Sep-24 00:17N 30°15' W 093°15'0 0.0
2017-Sep-23 23:47N 30°15' W 093°15'0 0.0
2017-Sep-23 23:26N 30°15' W 093°15'0 0.0
2017-Sep-23 22:59N 30°15' W 093°15'0 0.0
2017-Sep-23 21:34N 30°15' W 093°15'0 0.0
2017-Sep-23 21:29N 30°15' W 093°15'0 0.0
2017-Sep-23 20:38N 30°15' W 093°15'0 0.0
2017-Sep-23 20:29N 30°15' W 093°15'0 0.0
2017-Sep-23 19:35N 30°15' W 093°15'0 0.0
2017-Sep-21 23:43N 30°15' W 093°15'1 2.5
2017-Sep-21 23:31N 30°14' W 093°15'1 2.3
2017-Sep-21 23:00N 30°13' W 093°15'2 5.0
2017-Sep-21 22:30N 30°12' W 093°17'3 6.5
2017-Sep-21 22:01N 30°09' W 093°20'3 6.4
2017-Sep-21 21:31N 30°06' W 093°20'2 3.8
2017-Sep-21 21:01N 30°04' W 093°20'0 0.1
2017-Sep-21 20:31N 30°04' W 093°20'1 1.2
2017-Sep-21 20:01N 30°05' W 093°20'3 6.0
2017-Sep-21 19:27N 30°08' W 093°20'3 6.4
2017-Sep-21 19:01N 30°11' W 093°19'3 6.7
2017-Sep-21 18:31N 30°13' W 093°16'1 2.7
2017-Sep-21 18:00N 30°14' W 093°15'1 1.3
2017-Sep-21 17:29N 30°15' W 093°15'0 0.0
2017-Sep-21 16:59N 30°15' W 093°15'0 0.0
2017-Sep-21 16:23N 30°15' W 093°15'0 0.0
2017-Sep-21 15:59N 30°15' W 093°15'0 0.0
2017-Sep-21 15:22N 30°15' W 093°15'0 0.1
2017-Sep-21 14:56N 30°15' W 093°15'0 0.3
2017-Sep-21 14:27N 30°15' W 093°15'0 0.1
2017-Sep-21 13:58N 30°15' W 093°15'0 0.1
2017-Sep-21 13:28N 30°15' W 093°15'0 0.0
2017-Sep-21 12:58N 30°15' W 093°15'0 0.0
2017-Sep-21 12:28N 30°15' W 093°15'0 0.0
2017-Sep-21 11:55N 30°15' W 093°15'0 0.0
2017-Sep-21 11:25N 30°15' W 093°15'0 0.0
2017-Sep-21 10:49N 30°15' W 093°15'0 0.0
2017-Sep-21 10:28N 30°15' W 093°15'0 0.0
2017-Sep-21 09:58N 30°15' W 093°15'0 0.0
2017-Sep-21 09:25N 30°15' W 093°15'0 0.0
2017-Sep-21 08:52N 30°15' W 093°15'0 0.0
2017-Sep-21 08:19N 30°15' W 093°15'0 0.0
2017-Sep-21 07:58N 30°15' W 093°15'0 0.0
2017-Sep-21 07:28N 30°15' W 093°15'0 0.0
2017-Sep-21 06:49N 30°15' W 093°15'0 0.0
2017-Sep-21 06:28N 30°15' W 093°15'0 0.0
2017-Sep-21 05:58N 30°15' W 093°15'0 0.0
2017-Sep-21 05:25N 30°15' W 093°15'0 0.0
2017-Sep-21 05:01N 30°15' W 093°15'0 0.0
2017-Sep-21 04:28N 30°15' W 093°15'0 0.0
2017-Sep-21 03:58N 30°15' W 093°15'0 0.0
2017-Sep-21 03:28N 30°15' W 093°15'0 0.0
2017-Sep-21 02:58N 30°15' W 093°15'0 0.0
2017-Sep-21 02:25N 30°15' W 093°15'0 0.0
2017-Sep-21 01:55N 30°15' W 093°15'0 0.0
2017-Sep-21 01:25N 30°15' W 093°15'0 0.0
2017-Sep-21 01:00N 30°15' W 093°15'0 0.0
2017-Sep-21 00:28N 30°15' W 093°15'0 0.0
2017-Sep-21 00:01N 30°15' W 093°15'0 0.0
2017-Sep-20 23:28N 30°15' W 093°15'0 0.0
2017-Sep-20 22:55N 30°15' W 093°15'0 0.0
2017-Sep-20 22:19N 30°15' W 093°15'0 0.0
2017-Sep-20 22:00N 30°15' W 093°15'0 0.0
2017-Sep-20 20:48N 30°15' W 093°15'0 0.0
2017-Sep-20 20:28N 30°15' W 093°15'0 0.0
2017-Sep-20 15:52N 30°15' W 093°15'0 0.0
2017-Sep-20 15:12N 30°15' W 093°15'0 0.0
2017-Sep-20 15:00N 30°15' W 093°15'0 0.0
2017-Sep-20 13:59N 30°15' W 093°15'0 0.0
2017-Sep-20 13:29N 30°15' W 093°15'0 0.0
2017-Sep-20 12:56N 30°15' W 093°15'0 0.0
2017-Sep-20 12:26N 30°15' W 093°15'0 0.0
2017-Sep-20 11:59N 30°15' W 093°15'0 0.0
2017-Sep-20 11:29N 30°15' W 093°15'0 0.0
2017-Sep-20 10:56N 30°15' W 093°15'0 0.0
2017-Sep-20 10:29N 30°15' W 093°15'0 0.0
2017-Sep-20 09:59N 30°15' W 093°15'0 0.0
2017-Sep-20 09:29N 30°15' W 093°15'0 0.0
2017-Sep-20 08:59N 30°15' W 093°15'0 0.0
2017-Sep-20 08:29N 30°15' W 093°15'0 0.0
2017-Sep-20 07:59N 30°15' W 093°15'0 0.0
2017-Sep-20 07:29N 30°15' W 093°15'0 0.0
2017-Sep-20 06:58N 30°15' W 093°15'0 0.0
2017-Sep-20 06:29N 30°15' W 093°15'0 0.0
2017-Sep-20 05:59N 30°15' W 093°15'0 0.0
2017-Sep-20 05:29N 30°15' W 093°15'0 0.0
2017-Sep-20 04:58N 30°15' W 093°15'0 0.0
2017-Sep-20 04:29N 30°15' W 093°15'0 0.0
2017-Sep-20 03:59N 30°15' W 093°15'0 0.0
2017-Sep-20 03:29N 30°15' W 093°15'0 0.0
2017-Sep-20 02:59N 30°15' W 093°15'0 0.0
2017-Sep-20 02:29N 30°15' W 093°15'0 0.0
2017-Sep-20 01:59N 30°15' W 093°15'0 0.0
2017-Sep-20 01:29N 30°15' W 093°15'0 0.0
2017-Sep-20 00:59N 30°15' W 093°15'0 0.0
2017-Sep-20 00:28N 30°15' W 093°15'0 0.0
2017-Sep-19 23:55N 30°15' W 093°15'0 0.5
2017-Sep-19 23:29N 30°14' W 093°15'0 0.1
2017-Sep-19 21:12N 30°15' W 093°15'0 0.1
2017-Sep-19 20:58N 30°15' W 093°15'0 0.0
2017-Sep-19 20:28N 30°15' W 093°15'0 0.0
2017-Sep-19 19:10N 30°15' W 093°15'0 0.0
2017-Sep-19 18:55N 30°15' W 093°15'0 0.0
2017-Sep-19 18:25N 30°15' W 093°15'0 0.0
2017-Sep-19 17:52N 30°15' W 093°15'0 0.0
2017-Sep-19 17:22N 30°15' W 093°15'0 0.1
2017-Sep-19 16:55N 30°15' W 093°15'0 0.0
2017-Sep-19 16:25N 30°15' W 093°15'0 0.0
2017-Sep-19 12:28N 30°15' W 093°15'1 2.0
2017-Sep-19 12:00N 30°14' W 093°15'1 1.4
2017-Sep-19 11:30N 30°13' W 093°15'0 0.0
2017-Sep-19 10:55N 30°13' W 093°15'0 0.0
2017-Sep-19 10:29N 30°13' W 093°15'0 0.0
2017-Sep-19 10:00N 30°13' W 093°15'0 0.0
2017-Sep-19 09:30N 30°13' W 093°15'0 0.0
2017-Sep-19 09:01N 30°13' W 093°15'0 0.0
2017-Sep-19 08:30N 30°13' W 093°15'0 0.0
2017-Sep-19 08:00N 30°13' W 093°15'0 0.0
2017-Sep-19 07:23N 30°13' W 093°15'0 0.0
2017-Sep-19 06:59N 30°13' W 093°15'0 0.5
2017-Sep-19 06:30N 30°13' W 093°15'2 3.1
2017-Sep-19 06:00N 30°12' W 093°17'3 5.3
2017-Sep-19 05:30N 30°11' W 093°19'2 4.5
2017-Sep-19 05:00N 30°09' W 093°20'2 4.6
2017-Sep-19 04:30N 30°06' W 093°20'1 1.5
2017-Sep-19 04:00N 30°06' W 093°19'1 1.4
2017-Sep-19 03:30N 30°06' W 093°18'1 1.4
2017-Sep-19 03:00N 30°05' W 093°18'1 2.1
2017-Sep-19 02:30N 30°05' W 093°17'0 0.7
2017-Sep-19 02:00N 30°04' W 093°16'0 0.5
2017-Sep-19 01:30N 30°04' W 093°16'2 3.7
2017-Sep-19 01:00N 30°02' W 093°16'2 4.4
2017-Sep-19 00:31N 30°01' W 093°14'2 4.1
2017-Sep-19 00:00N 29°59' W 093°13'2 4.6
2017-Sep-18 23:30N 29°57' W 093°11'43 4.9
2017-Sep-18 14:38N 29°51' W 092°21'1 4.7
2017-Sep-18 14:29N 29°51' W 092°20'2 4.7
2017-Sep-18 14:00N 29°50' W 092°18'2 4.4
2017-Sep-18 13:30N 29°49' W 092°16'2 4.6
2017-Sep-18 13:00N 29°48' W 092°14'2 4.2
2017-Sep-18 12:30N 29°47' W 092°12'1 1.5
2017-Sep-18 12:00N 29°47' W 092°11'1 2.7
2017-Sep-18 11:30N 29°47' W 092°09'2 4.6
2017-Sep-18 11:00N 29°48' W 092°07'2 4.7
2017-Sep-18 10:30N 29°48' W 092°04'66 4.1
2017-Sep-17 18:24N 29°32' W 090°51'2 4.6
2017-Sep-17 18:00N 29°32' W 090°49'2 4.9
2017-Sep-17 17:30N 29°32' W 090°46'2 4.7
2017-Sep-17 17:00N 29°34' W 090°44'2 3.7
2017-Sep-17 16:30N 29°35' W 090°43'2 3.5
2017-Sep-17 16:00N 29°37' W 090°42'2 4.3
2017-Sep-17 15:30N 29°36' W 090°40'2 4.7
2017-Sep-17 15:01N 29°35' W 090°38'2 4.2
2017-Sep-17 14:30N 29°35' W 090°35'2 4.4
2017-Sep-17 14:01N 29°34' W 090°33'2 4.4
2017-Sep-17 13:30N 29°34' W 090°30'2 4.4
2017-Sep-17 12:58N 29°33' W 090°28'  
Track history (hours):
 
Tides and Currents Weather Stations Pressure Air Temp Water Temp Dewpoint Dewpoint Depression Visibility Wind Speed Wind Dir Waves Ship Positions

Mr Connor

Owner: Marquette Transportation Company Offshore LLC, Jefferson, LA. More information available from US FCC via Universal Licensing System and Coast Guard Vessel Documentation Center.

Last reported at 2017-Sep-24 08:29 UTC. Time now 2017-Sep-24 08:38 UTC.
Position N 30°15' W 093°15'.

Length 20 m; draft 3 m.

Type: Tug. MMSI: 367430750.

Date/timePositionNaut miles runAvg speedWind from/ knotsBaromVisibWave heightAir tempDewpointWater temp
2017-Sep-24 08:29N 30°15' W 093°15'0 0.0
2017-Sep-24 07:44N 30°15' W 093°15'0 0.0
2017-Sep-24 07:23N 30°15' W 093°15'0 0.0
2017-Sep-24 05:08N 30°15' W 093°15'0 0.1
2017-Sep-24 04:59N 30°15' W 093°15'0 0.0
2017-Sep-24 04:26N 30°15' W 093°15'0 0.0
2017-Sep-24 03:59N 30°15' W 093°15'0 0.0
2017-Sep-24 03:29N 30°15' W 093°15'0 0.0
2017-Sep-24 02:56N 30°15' W 093°15'0 0.0
2017-Sep-24 02:20N 30°15' W 093°15'0 0.0
2017-Sep-24 01:20N 30°15' W 093°15'0 0.0
2017-Sep-24 00:44N 30°15' W 093°15'0 0.0
2017-Sep-24 00:17N 30°15' W 093°15'0 0.0
2017-Sep-23 23:47N 30°15' W 093°15'0 0.0
2017-Sep-23 23:26N 30°15' W 093°15'0 0.0
2017-Sep-23 22:59N 30°15' W 093°15'0 0.0
2017-Sep-23 21:34N 30°15' W 093°15'0 0.0
2017-Sep-23 21:29N 30°15' W 093°15'0 0.0
2017-Sep-23 20:38N 30°15' W 093°15'0 0.0
2017-Sep-23 20:29N 30°15' W 093°15'0 0.0
2017-Sep-23 19:35N 30°15' W 093°15'0 0.0
2017-Sep-21 23:43N 30°15' W 093°15'1 2.5
2017-Sep-21 23:31N 30°14' W 093°15'1 2.3
2017-Sep-21 23:00N 30°13' W 093°15'2 5.0
2017-Sep-21 22:30N 30°12' W 093°17'3 6.5
2017-Sep-21 22:01N 30°09' W 093°20'3 6.4
2017-Sep-21 21:31N 30°06' W 093°20'2 3.8
2017-Sep-21 21:01N 30°04' W 093°20'0 0.1
2017-Sep-21 20:31N 30°04' W 093°20'1 1.2
2017-Sep-21 20:01N 30°05' W 093°20'3 6.0
2017-Sep-21 19:27N 30°08' W 093°20'3 6.4
2017-Sep-21 19:01N 30°11' W 093°19'3 6.7
2017-Sep-21 18:31N 30°13' W 093°16'1 2.7
2017-Sep-21 18:00N 30°14' W 093°15'1 1.3
2017-Sep-21 17:29N 30°15' W 093°15'0 0.0
2017-Sep-21 16:59N 30°15' W 093°15'0 0.0
2017-Sep-21 16:23N 30°15' W 093°15'0 0.0
2017-Sep-21 15:59N 30°15' W 093°15'0 0.0
2017-Sep-21 15:22N 30°15' W 093°15'0 0.1
2017-Sep-21 14:56N 30°15' W 093°15'0 0.3
2017-Sep-21 14:27N 30°15' W 093°15'0 0.1
2017-Sep-21 13:58N 30°15' W 093°15'0 0.1
2017-Sep-21 13:28N 30°15' W 093°15'0 0.0
2017-Sep-21 12:58N 30°15' W 093°15'0 0.0
2017-Sep-21 12:28N 30°15' W 093°15'0 0.0
2017-Sep-21 11:55N 30°15' W 093°15'0 0.0
2017-Sep-21 11:25N 30°15' W 093°15'0 0.0
2017-Sep-21 10:49N 30°15' W 093°15'0 0.0
2017-Sep-21 10:28N 30°15' W 093°15'0 0.0
2017-Sep-21 09:58N 30°15' W 093°15'0 0.0
2017-Sep-21 09:25N 30°15' W 093°15'0 0.0
2017-Sep-21 08:52N 30°15' W 093°15'0 0.0
2017-Sep-21 08:19N 30°15' W 093°15'0 0.0
2017-Sep-21 07:58N 30°15' W 093°15'0 0.0
2017-Sep-21 07:28N 30°15' W 093°15'0 0.0
2017-Sep-21 06:49N 30°15' W 093°15'0 0.0
2017-Sep-21 06:28N 30°15' W 093°15'0 0.0
2017-Sep-21 05:58N 30°15' W 093°15'0 0.0
2017-Sep-21 05:25N 30°15' W 093°15'0 0.0
2017-Sep-21 05:01N 30°15' W 093°15'0 0.0
2017-Sep-21 04:28N 30°15' W 093°15'0 0.0
2017-Sep-21 03:58N 30°15' W 093°15'0 0.0
2017-Sep-21 03:28N 30°15' W 093°15'0 0.0
2017-Sep-21 02:58N 30°15' W 093°15'0 0.0
2017-Sep-21 02:25N 30°15' W 093°15'0 0.0
2017-Sep-21 01:55N 30°15' W 093°15'0 0.0
2017-Sep-21 01:25N 30°15' W 093°15'0 0.0
2017-Sep-21 01:00N 30°15' W 093°15'0 0.0
2017-Sep-21 00:28N 30°15' W 093°15'0 0.0
2017-Sep-21 00:01N 30°15' W 093°15'0 0.0
2017-Sep-20 23:28N 30°15' W 093°15'0 0.0
2017-Sep-20 22:55N 30°15' W 093°15'0 0.0
2017-Sep-20 22:19N 30°15' W 093°15'0 0.0
2017-Sep-20 22:00N 30°15' W 093°15'0 0.0
2017-Sep-20 20:48N 30°15' W 093°15'0 0.0
2017-Sep-20 20:28N 30°15' W 093°15'0 0.0
2017-Sep-20 15:52N 30°15' W 093°15'0 0.0
2017-Sep-20 15:12N 30°15' W 093°15'0 0.0
2017-Sep-20 15:00N 30°15' W 093°15'0 0.0
2017-Sep-20 13:59N 30°15' W 093°15'0 0.0
2017-Sep-20 13:29N 30°15' W 093°15'0 0.0
2017-Sep-20 12:56N 30°15' W 093°15'0 0.0
2017-Sep-20 12:26N 30°15' W 093°15'0 0.0
2017-Sep-20 11:59N 30°15' W 093°15'0 0.0
2017-Sep-20 11:29N 30°15' W 093°15'0 0.0
2017-Sep-20 10:56N 30°15' W 093°15'0 0.0
2017-Sep-20 10:29N 30°15' W 093°15'0 0.0
2017-Sep-20 09:59N 30°15' W 093°15'0 0.0
2017-Sep-20 09:29N 30°15' W 093°15'0 0.0
2017-Sep-20 08:59N 30°15' W 093°15'0 0.0
2017-Sep-20 08:29N 30°15' W 093°15'0 0.0
2017-Sep-20 07:59N 30°15' W 093°15'0 0.0
2017-Sep-20 07:29N 30°15' W 093°15'0 0.0
2017-Sep-20 06:58N 30°15' W 093°15'0 0.0
2017-Sep-20 06:29N 30°15' W 093°15'0 0.0
2017-Sep-20 05:59N 30°15' W 093°15'0 0.0
2017-Sep-20 05:29N 30°15' W 093°15'0 0.0
2017-Sep-20 04:58N 30°15' W 093°15'0 0.0
2017-Sep-20 04:29N 30°15' W 093°15'0 0.0
2017-Sep-20 03:59N 30°15' W 093°15'0 0.0
2017-Sep-20 03:29N 30°15' W 093°15'0 0.0
2017-Sep-20 02:59N 30°15' W 093°15'0 0.0
2017-Sep-20 02:29N 30°15' W 093°15'0 0.0
2017-Sep-20 01:59N 30°15' W 093°15'0 0.0
2017-Sep-20 01:29N 30°15' W 093°15'0 0.0
2017-Sep-20 00:59N 30°15' W 093°15'0 0.0
2017-Sep-20 00:28N 30°15' W 093°15'0 0.0
2017-Sep-19 23:55N 30°15' W 093°15'0 0.5
2017-Sep-19 23:29N 30°14' W 093°15'0 0.1
2017-Sep-19 21:12N 30°15' W 093°15'0 0.1
2017-Sep-19 20:58N 30°15' W 093°15'0 0.0
2017-Sep-19 20:28N 30°15' W 093°15'0 0.0
2017-Sep-19 19:10N 30°15' W 093°15'0 0.0
2017-Sep-19 18:55N 30°15' W 093°15'0 0.0
2017-Sep-19 18:25N 30°15' W 093°15'0 0.0
2017-Sep-19 17:52N 30°15' W 093°15'0 0.0
2017-Sep-19 17:22N 30°15' W 093°15'0 0.1
2017-Sep-19 16:55N 30°15' W 093°15'0 0.0
2017-Sep-19 16:25N 30°15' W 093°15'0 0.0
2017-Sep-19 12:28N 30°15' W 093°15'1 2.0
2017-Sep-19 12:00N 30°14' W 093°15'1 1.4
2017-Sep-19 11:30N 30°13' W 093°15'0 0.0
2017-Sep-19 10:55N 30°13' W 093°15'0 0.0
2017-Sep-19 10:29N 30°13' W 093°15'0 0.0
2017-Sep-19 10:00N 30°13' W 093°15'0 0.0
2017-Sep-19 09:30N 30°13' W 093°15'0 0.0
2017-Sep-19 09:01N 30°13' W 093°15'0 0.0
2017-Sep-19 08:30N 30°13' W 093°15'0 0.0
2017-Sep-19 08:00N 30°13' W 093°15'0 0.0
2017-Sep-19 07:23N 30°13' W 093°15'0 0.0
2017-Sep-19 06:59N 30°13' W 093°15'0 0.5
2017-Sep-19 06:30N 30°13' W 093°15'2 3.1
2017-Sep-19 06:00N 30°12' W 093°17'3 5.3
2017-Sep-19 05:30N 30°11' W 093°19'2 4.5
2017-Sep-19 05:00N 30°09' W 093°20'2 4.6
2017-Sep-19 04:30N 30°06' W 093°20'1 1.5
2017-Sep-19 04:00N 30°06' W 093°19'1 1.4
2017-Sep-19 03:30N 30°06' W 093°18'1 1.4
2017-Sep-19 03:00N 30°05' W 093°18'1 2.1
2017-Sep-19 02:30N 30°05' W 093°17'0 0.7
2017-Sep-19 02:00N 30°04' W 093°16'0 0.5
2017-Sep-19 01:30N 30°04' W 093°16'2 3.7
2017-Sep-19 01:00N 30°02' W 093°16'2 4.4
2017-Sep-19 00:31N 30°01' W 093°14'2 4.1
2017-Sep-19 00:00N 29°59' W 093°13'2 4.6
2017-Sep-18 23:30N 29°57' W 093°11'43 4.9
2017-Sep-18 14:38N 29°51' W 092°21'1 4.7
2017-Sep-18 14:29N 29°51' W 092°20'2 4.7
2017-Sep-18 14:00N 29°50' W 092°18'2 4.4
2017-Sep-18 13:30N 29°49' W 092°16'2 4.6
2017-Sep-18 13:00N 29°48' W 092°14'2 4.2
2017-Sep-18 12:30N 29°47' W 092°12'1 1.5
2017-Sep-18 12:00N 29°47' W 092°11'1 2.7
2017-Sep-18 11:30N 29°47' W 092°09'2 4.6
2017-Sep-18 11:00N 29°48' W 092°07'2 4.7
2017-Sep-18 10:30N 29°48' W 092°04'66 4.1
2017-Sep-17 18:24N 29°32' W 090°51'2 4.6
2017-Sep-17 18:00N 29°32' W 090°49'2 4.9
2017-Sep-17 17:30N 29°32' W 090°46'2 4.7
2017-Sep-17 17:00N 29°34' W 090°44'2 3.7
2017-Sep-17 16:30N 29°35' W 090°43'2 3.5
2017-Sep-17 16:00N 29°37' W 090°42'2 4.3
2017-Sep-17 15:30N 29°36' W 090°40'2 4.7
2017-Sep-17 15:01N 29°35' W 090°38'2 4.2
2017-Sep-17 14:30N 29°35' W 090°35'2 4.4
2017-Sep-17 14:01N 29°34' W 090°33'2 4.4
2017-Sep-17 13:30N 29°34' W 090°30'2 4.4
2017-Sep-17 12:58N 29°33' W 090°28'  

Dump ship's entire track history